Time;durP1;ratioP1;P1;durP2;ratioP2;P2;SDS_P1;SDS_P2;PMS_P1;PMS_P2;Temp;Humidity;BMP_temperature;BMP_pressure;BME280_temperature;BME280_humidity;BME280_pressure;Samples;Min_cycle;Max_cycle;Signal;HPM_P1;HPM_P2
2022/09/15 00:01:53;;;;;;;12.53;6.60;;;;;;;;;;5078144;28;20452;-79
2022/09/15 00:04:19;;;;;;;9.38;5.75;;;;;;;;;;5087456;28;20420;-79
2022/09/15 00:06:45;;;;;;;9.70;5.18;;;;;;;;;;5091000;28;20483;-79
2022/09/15 00:09:11;;;;;;;10.93;4.53;;;;;;;;;;5079696;28;20407;-78
2022/09/15 00:11:38;;;;;;;12.38;4.72;;;;;;;;;;5090616;28;20404;-79
2022/09/15 00:14:05;;;;;;;11.52;4.90;;;;;;;;;;5086069;28;20439;-79
2022/09/15 00:16:31;;;;;;;9.48;5.40;;;;;;;;;;5090163;27;20426;-79
2022/09/15 00:18:58;;;;;;;8.60;5.20;;;;;;;;;;5080723;28;20926;-79
2022/09/15 00:21:26;;;;;;;9.60;5.78;;;14.80;99.90;;;;;;5101187;28;20427;-79
2022/09/15 00:23:52;;;;;;;12.68;6.38;;;;;;;;;;5089790;28;20517;-79
2022/09/15 00:26:20;;;;;;;11.40;7.20;;;;;;;;;;5089478;28;20516;-79
2022/09/15 00:28:46;;;;;;;10.10;6.60;;;;;;;;;;5077765;28;20436;-79
2022/09/15 00:31:16;;;;;;;13.67;7.60;;;14.50;99.90;;;;;;5097186;28;20411;-79
2022/09/15 00:33:42;;;;;;;12.70;7.47;;;;;;;;;;5092864;28;20826;-79
2022/09/15 00:36:10;;;;;;;11.70;8.50;;;14.80;99.90;;;;;;5084884;28;20425;-79
2022/09/15 00:38:37;;;;;;;13.60;8.00;;;;;;;;;;5067799;28;20836;-77
2022/09/15 00:41:04;;;;;;;13.45;7.70;;;14.50;99.90;;;;;;5099918;28;20427;-79
2022/09/15 00:44:22;;;;;;;13.45;8.32;;;14.50;99.90;;;;;;5082629;28;20425;-79
2022/09/15 00:46:51;;;;;;;12.93;8.35;;;;;;;;;;5067494;28;20428;-78
2022/09/15 00:49:31;;;;;;;11.80;8.07;;;14.40;99.90;;;;;;5092910;28;20761;-78
2022/09/15 00:52:02;;;;;;;13.60;8.80;;;;;;;;;;5090562;28;20503;-78
2022/09/15 00:54:31;;;;;;;14.15;7.93;;;;;;;;;;5090810;28;20773;-78
2022/09/15 00:57:01;;;;;;;12.63;7.82;;;14.60;99.90;;;;;;5086832;28;20503;-78
2022/09/15 00:59:29;;;;;;;12.93;8.00;;;;;;;;;;5076567;28;20432;-78
2022/09/15 01:02:03;;;;;;;12.68;8.00;;;;;;;;;;5093639;28;20477;-78
2022/09/15 01:04:29;;;;;;;12.15;8.27;;;;;;;;;;5091496;28;20495;-79
2022/09/15 01:06:58;;;;;;;12.25;8.30;;;;;;;;;;5086952;27;20929;-79
2022/09/15 01:09:37;;;;;;;13.30;9.07;;;14.50;99.90;;;;;;5088071;28;20455;-79
2022/09/15 01:12:03;;;;;;;13.30;8.52;;;;;;;;;;5084946;28;20498;-79
2022/09/15 01:14:29;;;;;;;14.70;8.47;;;;;;;;;;5093814;28;20399;-79
2022/09/15 01:17:06;;;;;;;14.65;8.63;;;14.20;99.90;;;;;;5093004;28;20527;-79
2022/09/15 01:19:36;;;;;;;13.50;8.52;;;;;;;;;;5098594;28;20997;-79
2022/09/15 01:22:05;;;;;;;16.03;8.40;;;;;;;;;;5075288;28;20941;-79
2022/09/15 01:25:05;;;;;;;12.85;7.97;;;14.40;99.90;;;;;;5078750;28;20398;-79
2022/09/15 01:27:46;;;;;;;12.93;7.28;;;;;;;;;;5081540;28;20417;-79
2022/09/15 01:30:19;;;;;;;11.60;6.53;;;;;;;;;;5099075;27;20418;-79
2022/09/15 01:33:03;;;;;;;11.35;6.40;;;;;;;;;;5076150;28;20461;-79
2022/09/15 01:35:32;;;;;;;15.35;6.70;;;;;;;;;;5065205;27;21451;-79
2022/09/15 01:38:31;;;;;;;10.95;6.60;;;;;;;;;;5072578;28;20925;-79
2022/09/15 01:41:00;;;;;;;13.18;6.20;;;;;;;;;;5048620;27;20428;-79
2022/09/15 01:43:28;;;;;;;10.63;5.80;;;;;;;;;;5104139;28;20400;-79
2022/09/15 01:45:54;;;;;;;9.38;5.80;;;14.20;99.90;;;;;;5079484;28;20436;-79
2022/09/15 01:48:22;;;;;;;12.52;5.60;;;;;;;;;;5090018;28;20471;-79
2022/09/15 01:50:50;;;;;;;11.88;6.20;;;;;;;;;;5082653;28;20446;-79
2022/09/15 01:53:18;;;;;;;10.35;5.05;;;;;;;;;;5084956;28;20408;-79
2022/09/15 01:55:47;;;;;;;11.82;4.78;;;14.10;99.90;;;;;;5102494;27;20422;-79
2022/09/15 01:58:14;;;;;;;11.75;5.10;;;;;;;;;;5093203;28;20417;-80
2022/09/15 02:00:46;;;;;;;10.30;4.80;;;14.30;99.90;;;;;;5063709;28;20819;-79
2022/09/15 02:03:33;;;;;;;11.90;4.80;;;;;;;;;;5091697;28;20423;-79
2022/09/15 02:06:13;;;;;;;9.13;4.47;;;14.40;99.90;;;;;;5093209;28;21000;-79
2022/09/15 02:08:43;;;;;;;7.10;2.00;;;;;;;;;;5097872;28;20404;-79
2022/09/15 02:11:15;;;;;;;8.07;1.98;;;;;;;;;;5094622;27;20396;-79
2022/09/15 02:13:41;;;;;;;8.00;2.22;;;;;;;;;;5086662;28;20420;-79
2022/09/15 02:16:15;;;;;;;8.02;1.80;;;;;;;;;;5079586;28;20424;-79
2022/09/15 02:18:49;;;;;;;8.35;2.05;;;;;;;;;;5089733;28;20954;-79
2022/09/15 02:21:18;;;;;;;5.63;1.83;;;;;;;;;;5093898;28;20492;-79
2022/09/15 02:23:50;;;;;;;7.38;1.60;;;;;;;;;;5096657;28;20511;-79
2022/09/15 02:26:23;;;;;;;9.80;1.90;;;13.70;99.90;;;;;;5095291;28;20448;-79
2022/09/15 02:28:50;;;;;;;10.82;2.00;;;;;;;;;;5094210;28;20416;-79
2022/09/15 02:31:17;;;;;;;7.47;1.83;;;;;;;;;;5088581;28;20484;-79
2022/09/15 02:33:50;;;;;;;8.15;1.80;;;;;;;;;;5093788;28;20758;-79
2022/09/15 02:36:19;;;;;;;9.95;1.90;;;14.20;99.90;;;;;;5092172;28;20411;-79
2022/09/15 02:38:57;;;;;;;9.18;1.80;;;;;;;;;;5077761;28;20417;-79
2022/09/15 02:41:23;;;;;;;10.93;2.05;;;;;;;;;;5100453;28;20505;-79
2022/09/15 02:43:49;;;;;;;10.20;1.57;;;;;;;;;;5094243;28;20427;-79
2022/09/15 02:46:18;;;;;;;7.20;2.00;;;14.20;99.90;;;;;;5094502;28;20761;-79
2022/09/15 02:48:44;;;;;;;6.90;1.88;;;;;;;;;;5072626;28;20416;-79
2022/09/15 02:51:10;;;;;;;6.13;1.45;;;;;;;;;;5080979;27;20410;-79
2022/09/15 02:53:36;;;;;;;6.93;1.60;;;;;;;;;;5073617;28;20417;-79
2022/09/15 02:56:05;;;;;;;7.03;1.70;;;;;;;;;;5091336;28;20770;-79
2022/09/15 02:58:32;;;;;;;7.60;1.65;;;;;;;;;;5062646;28;20520;-79
2022/09/15 03:01:03;;;;;;;6.13;1.58;;;14.20;99.90;;;;;;5091945;28;20554;-78
2022/09/15 03:03:30;;;;;;;7.88;1.65;;;;;;;;;;5096610;27;21182;-78
2022/09/15 03:06:15;;;;;;;7.55;1.67;;;;;;;;;;5093743;27;20421;-78
2022/09/15 03:08:53;;;;;;;11.20;1.67;;;13.80;99.90;;;;;;5091688;28;20423;-79
2022/09/15 03:11:20;;;;;;;6.65;1.50;;;;;;;;;;5094848;27;20433;-79
2022/09/15 03:13:46;;;;;;;6.95;1.48;;;;;;;;;;5110378;27;20764;-78
2022/09/15 03:16:13;;;;;;;7.18;1.63;;;;;;;;;;5099691;28;20549;-79
2022/09/15 03:18:40;;;;;;;7.60;1.50;;;14.10;99.90;;;;;;5094904;28;20447;-79
2022/09/15 03:21:07;;;;;;;8.87;1.50;;;;;;;;;;5079554;27;20419;-79
2022/09/15 03:23:34;;;;;;;8.95;2.10;;;;;;;;;;5097419;28;20498;-79
2022/09/15 03:26:00;;;;;;;7.88;1.70;;;;;;;;;;5098499;27;20418;-79
2022/09/15 03:28:26;;;;;;;9.90;1.60;;;;;;;;;;5096903;27;20897;-79
2022/09/15 03:30:53;;;;;;;9.95;2.00;;;;;;;;;;5079944;28;20421;-79
2022/09/15 03:33:19;;;;;;;10.25;2.00;;;;;;;;;;5096338;28;20412;-79
2022/09/15 03:35:46;;;;;;;9.38;1.80;;;;;;;;;;5071793;27;20418;-79
2022/09/15 03:38:12;;;;;;;8.75;1.90;;;;;;;;;;5092117;27;20400;-79
2022/09/15 03:40:38;;;;;;;9.82;1.60;;;14.20;99.90;;;;;;5093845;27;20422;-78
2022/09/15 03:43:04;;;;;;;9.32;1.65;;;;;;;;;;5098416;28;20480;-79
2022/09/15 03:45:31;;;;;;;8.80;1.85;;;;;;;;;;5092847;28;20423;-79
2022/09/15 03:47:57;;;;;;;8.23;1.60;;;;;;;;;;5091957;28;20502;-79
2022/09/15 03:50:23;;;;;;;7.78;1.50;;;;;;;;;;5080775;27;20423;-79
2022/09/15 03:52:49;;;;;;;9.43;1.90;;;;;;;;;;5064735;28;20466;-79
2022/09/15 03:55:15;;;;;;;6.85;1.70;;;;;;;;;;5101450;28;20408;-79
2022/09/15 03:57:41;;;;;;;9.27;2.20;;;;;;;;;;5076897;27;20431;-79
2022/09/15 04:00:07;;;;;;;5.57;1.45;;;;;;;;;;5092140;28;20412;-79
2022/09/15 04:02:33;;;;;;;8.57;1.63;;;;;;;;;;5083782;27;20441;-79
2022/09/15 04:05:01;;;;;;;10.93;1.75;;;;;;;;;;5063600;28;20506;-78
2022/09/15 04:07:27;;;;;;;10.07;1.70;;;;;;;;;;5098587;28;20420;-78
2022/09/15 04:09:54;;;;;;;8.63;1.80;;;;;;;;;;5053953;28;20456;-78
2022/09/15 04:12:20;;;;;;;7.72;1.73;;;;;;;;;;5100099;27;20454;-77
2022/09/15 04:14:46;;;;;;;7.82;1.60;;;;;;;;;;5093451;28;20409;-77
2022/09/15 04:17:14;;;;;;;8.35;1.80;;;;;;;;;;5097504;28;20411;-78
2022/09/15 04:19:40;;;;;;;7.05;1.73;;;;;;;;;;5064003;28;20521;-78
2022/09/15 04:22:06;;;;;;;11.15;2.38;;;;;;;;;;5102635;28;20626;-78
2022/09/15 04:24:32;;;;;;;5.22;1.40;;;;;;;;;;5092944;28;20400;-78
2022/09/15 04:26:58;;;;;;;5.60;1.77;;;;;;;;;;5094808;27;20420;-77
2022/09/15 04:29:25;;;;;;;13.63;2.08;;;;;;;;;;5094318;28;20411;-78
2022/09/15 04:31:52;;;;;;;6.70;1.70;;;;;;;;;;5076402;28;20426;-79
2022/09/15 04:34:18;;;;;;;6.13;1.67;;;;;;;;;;5086044;28;20416;-79
2022/09/15 04:36:45;;;;;;;7.78;1.58;;;;;;;;;;5074197;28;20433;-78
2022/09/15 04:39:11;;;;;;;6.60;1.80;;;;;;;;;;5094868;28;20902;-78
2022/09/15 04:41:37;;;;;;;7.90;1.73;;;;;;;;;;5080834;28;20424;-78
2022/09/15 04:44:03;;;;;;;5.72;1.45;;;;;;;;;;5094887;28;20904;-78
2022/09/15 04:46:29;;;;;;;5.93;1.30;;;;;;;;;;5096351;28;20902;-78
2022/09/15 04:48:56;;;;;;;10.65;1.70;;;;;;;;;;5089907;28;20443;-77
2022/09/15 04:51:23;;;;;;;5.40;1.33;;;14.10;99.90;;;;;;5096340;28;21021;-78
2022/09/15 04:53:50;;;;;;;5.93;1.77;;;;;;;;;;5092865;28;20488;-78
2022/09/15 04:56:20;;;;;;;7.47;1.48;;;14.10;99.90;;;;;;5093256;28;20415;-78
2022/09/15 04:58:50;;;;;;;8.20;1.67;;;;;;;;;;5093231;28;20414;-78
2022/09/15 05:01:18;;;;;;;8.02;2.00;;;;;;;;;;5092818;28;20426;-78
2022/09/15 05:03:45;;;;;;;5.40;1.45;;;;;;;;;;5092663;28;20433;-80
2022/09/15 05:06:13;;;;;;;8.60;1.48;;;;;;;;;;5080436;28;20422;-79
2022/09/15 05:08:40;;;;;;;8.32;1.92;;;;;;;;;;5096493;28;20419;-79
2022/09/15 05:11:07;;;;;;;6.47;1.80;;;;;;;;;;5093037;28;20446;-80
2022/09/15 05:13:34;;;;;;;9.60;1.80;;;;;;;;;;5075368;28;20502;-80
2022/09/15 05:16:17;;;;;;;6.93;1.80;;;13.70;99.90;;;;;;5082458;28;20424;-80
2022/09/15 05:18:44;;;;;;;7.22;1.85;;;;;;;;;;5065195;28;20408;-80
2022/09/15 05:21:14;;;;;;;7.32;1.90;;;;;;;;;;5088475;28;20455;-80
2022/09/15 05:23:40;;;;;;;7.97;2.23;;;;;;;;;;5088883;28;20441;-80
2022/09/15 05:26:10;;;;;;;9.15;1.98;;;14.10;99.90;;;;;;5089969;28;20423;-79
2022/09/15 05:28:37;;;;;;;7.38;1.85;;;;;;;;;;5111688;28;20401;-79
2022/09/15 05:31:07;;;;;;;7.70;2.10;;;;;;;;;;5063165;28;20576;-78
2022/09/15 05:33:33;;;;;;;7.97;1.75;;;;;;;;;;5085934;28;20453;-80
2022/09/15 05:36:00;;;;;;;7.93;2.03;;;;;;;;;;5098947;28;20444;-80
2022/09/15 05:38:28;;;;;;;20.30;3.20;;;;;;;;;;5060181;28;20431;-77
2022/09/15 05:41:00;;;;;;;6.90;1.58;;;;;;;;;;5103452;27;20826;-76
2022/09/15 05:43:30;;;;;;;16.42;2.22;;;13.50;99.90;;;;;;5078578;28;20444;-77
2022/09/15 05:45:56;;;;;;;16.80;2.50;;;;;;;;;;5093835;28;20416;-77
2022/09/15 05:48:23;;;;;;;10.25;1.77;;;;;;;;;;5103332;28;20451;-77
2022/09/15 05:50:53;;;;;;;6.63;1.65;;;;;;;;;;5081644;27;20419;-78
2022/09/15 05:53:19;;;;;;;13.32;2.40;;;;;;;;;;5099136;27;20889;-77
2022/09/15 05:55:45;;;;;;;16.88;3.60;;;;;;;;;;5096819;28;20447;-77
2022/09/15 05:58:12;;;;;;;11.98;2.20;;;;;;;;;;5092871;28;20435;-77
2022/09/15 06:00:40;;;;;;;7.15;1.70;;;;;;;;;;5096100;28;20722;-77
2022/09/15 06:03:06;;;;;;;8.27;1.90;;;;;;;;;;5094544;27;20412;-78
2022/09/15 06:05:32;;;;;;;9.63;1.98;;;;;;;;;;5095878;28;20420;-78
2022/09/15 06:07:59;;;;;;;8.60;1.67;;;;;;;;;;5096033;28;20392;-77
2022/09/15 06:10:25;;;;;;;8.23;1.90;;;;;;;;;;5095385;28;20412;-77
2022/09/15 06:12:54;;;;;;;7.60;1.75;;;13.90;99.90;;;;;;5082570;28;20424;-77
2022/09/15 06:15:21;;;;;;;12.20;2.23;;;;;;;;;;5102066;28;21019;-77
2022/09/15 06:17:47;;;;;;;9.30;2.00;;;;;;;;;;5068762;28;20431;-77
2022/09/15 06:20:13;;;;;;;6.35;1.60;;;;;;;;;;5082972;27;20589;-77
2022/09/15 06:22:40;;;;;;;10.93;2.38;;;;;;;;;;5092394;28;20413;-77
2022/09/15 06:25:06;;;;;;;14.63;2.42;;;;;;;;;;5100715;27;20493;-77
2022/09/15 06:27:32;;;;;;;10.43;2.15;;;;;;;;;;5079143;28;20771;-77
2022/09/15 06:29:58;;;;;;;9.25;2.15;;;;;;;;;;5074953;27;20493;-77
2022/09/15 06:32:24;;;;;;;10.55;2.17;;;;;;;;;;5078077;28;20483;-77
2022/09/15 06:34:50;;;;;;;7.43;1.95;;;;;;;;;;5061750;28;20816;-77
2022/09/15 06:37:17;;;;;;;14.45;1.90;;;;;;;;;;5100589;28;20424;-76
2022/09/15 06:39:43;;;;;;;10.73;2.20;;;;;;;;;;5090267;27;20420;-77
2022/09/15 06:42:10;;;;;;;9.77;2.20;;;;;;;;;;5079626;28;20429;-78
2022/09/15 06:44:36;;;;;;;10.50;1.90;;;;;;;;;;5100207;28;20424;-77
2022/09/15 06:47:04;;;;;;;10.93;1.70;;;;;;;;;;5089366;27;20442;-76
2022/09/15 06:49:30;;;;;;;10.32;2.28;;;;;;;;;;5093374;27;20433;-77
2022/09/15 06:51:56;;;;;;;8.07;1.77;;;;;;;;;;5102896;28;20934;-78
2022/09/15 06:54:22;;;;;;;8.98;1.80;;;;;;;;;;5105942;27;20502;-78
2022/09/15 06:56:49;;;;;;;9.15;1.50;;;;;;;;;;5104637;28;20915;-78
2022/09/15 06:59:16;;;;;;;6.30;1.33;;;;;;;;;;5077136;28;20426;-78
2022/09/15 07:01:42;;;;;;;8.38;1.42;;;;;;;;;;5089503;28;20412;-76
2022/09/15 07:04:08;;;;;;;7.22;1.35;;;15.10;99.90;;;;;;5084479;27;20474;-77
2022/09/15 07:06:36;;;;;;;8.77;1.75;;;15.20;99.90;;;;;;5096144;28;20482;-76
2022/09/15 07:09:03;;;;;;;9.70;2.15;;;;;;;;;;5067033;28;20412;-76
2022/09/15 07:11:29;;;;;;;11.38;1.77;;;;;;;;;;5091938;27;20909;-76
2022/09/15 07:13:55;;;;;;;8.07;1.40;;;;;;;;;;5089202;27;20544;-77
2022/09/15 07:16:24;;;;;;;9.07;1.88;;;;;;;;;;5098834;27;20493;-76
2022/09/15 07:18:50;;;;;;;7.43;1.50;;;;;;;;;;5094174;27;20428;-76
2022/09/15 07:21:21;;;;;;;4.32;1.30;;;15.20;99.90;;;;;;5098512;28;20435;-76
2022/09/15 07:23:47;;;;;;;6.43;1.10;;;15.40;99.90;;;;;;5094754;27;20910;-76
2022/09/15 07:26:21;;;;;;;6.32;1.35;;;;;;;;;;5070070;28;20428;-75
2022/09/15 07:28:55;;;;;;;8.38;1.45;;;15.30;99.90;;;;;;5087085;28;20494;-77
2022/09/15 07:31:23;;;;;;;8.57;1.48;;;;;;;;;;5086352;28;20412;-76
2022/09/15 07:33:49;;;;;;;4.90;1.30;;;;;;;;;;5093214;28;20407;-77
2022/09/15 07:36:16;;;;;;;7.78;1.50;;;;;;;;;;5100913;27;20414;-76
2022/09/15 07:38:43;;;;;;;6.63;1.60;;;;;;;;;;5099013;27;20553;-77
2022/09/15 07:41:12;;;;;;;6.50;1.33;;;15.50;99.90;;;;;;5096971;27;20421;-77
2022/09/15 07:43:39;;;;;;;5.88;1.73;;;;;;;;;;5081107;28;20407;-77
2022/09/15 07:46:05;;;;;;;8.45;1.38;;;;;;;;;;5092936;28;20503;-77
2022/09/15 07:48:31;;;;;;;6.15;1.40;;;;;;;;;;5076922;28;20744;-77
2022/09/15 07:50:58;;;;;;;9.25;1.52;;;;;;;;;;5091627;28;20412;-77
2022/09/15 07:53:29;;;;;;;6.13;1.40;;;15.70;99.90;;;;;;5092013;28;20425;-77
2022/09/15 07:55:56;;;;;;;5.70;1.20;;;;;;;;;;5074071;28;20796;-75
2022/09/15 07:58:23;;;;;;;6.25;1.20;;;;;;;;;;5095077;27;20419;-77
2022/09/15 08:00:49;;;;;;;6.47;1.42;;;;;;;;;;5088882;27;20505;-76
2022/09/15 08:03:15;;;;;;;6.13;1.60;;;;;;;;;;5092020;28;20490;-77
2022/09/15 08:05:41;;;;;;;8.85;1.70;;;;;;;;;;5093619;28;20759;-77
2022/09/15 08:08:08;;;;;;;6.35;1.42;;;;;;;;;;5093158;28;20495;-77
2022/09/15 08:10:34;;;;;;;5.57;1.50;;;;;;;;;;5091465;28;20420;-77
2022/09/15 08:13:00;;;;;;;7.65;1.73;;;;;;;;;;5091013;28;20412;-77
2022/09/15 08:15:26;;;;;;;7.10;1.67;;;15.90;99.90;;;;;;5090349;28;20761;-77
2022/09/15 08:17:52;;;;;;;11.50;1.80;;;;;;;;;;5084660;28;20462;-77
2022/09/15 08:20:19;;;;;;;5.43;1.10;;;;;;;;;;5074862;28;20398;-77
2022/09/15 08:22:46;;;;;;;5.93;1.58;;;;;;;;;;5073662;28;20420;-77
2022/09/15 08:25:13;;;;;;;5.50;1.70;;;;;;;;;;5096712;28;20420;-77
2022/09/15 08:27:39;;;;;;;7.23;1.70;;;;;;;;;;5100806;27;20503;-78
2022/09/15 08:30:06;;;;;;;6.28;1.60;;;;;;;;;;5077792;28;20442;-78
2022/09/15 08:32:32;;;;;;;7.55;1.40;;;;;;;;;;5094163;28;20427;-77
2022/09/15 08:34:58;;;;;;;6.75;1.50;;;;;;;;;;5087792;28;20945;-77
2022/09/15 08:37:24;;;;;;;8.52;1.80;;;17.50;99.90;;;;;;5073431;28;20421;-77
2022/09/15 08:39:50;;;;;;;6.93;1.50;;;17.20;99.90;;;;;;5076267;28;20525;-77
2022/09/15 08:42:18;;;;;;;6.10;1.20;;;;;;;;;;5094924;28;20748;-77
2022/09/15 08:44:48;;;;;;;9.20;2.07;;;16.90;99.90;;;;;;5073178;28;20428;-77
2022/09/15 08:47:20;;;;;;;9.32;2.95;;;;;;;;;;5104255;28;20595;-77
2022/09/15 08:49:49;;;;;;;8.85;2.63;;;;;;;;;;5073148;28;20465;-76
2022/09/15 08:52:34;;;;;;;9.52;1.70;;;15.90;99.90;;;;;;5106040;28;20887;-77
2022/09/15 08:55:02;;;;;;;7.70;1.63;;;;;;;;;;5091922;28;20429;-77
2022/09/15 08:57:28;;;;;;;6.40;1.40;;;;;;;;;;5102757;28;20428;-77
2022/09/15 08:59:55;;;;;;;7.78;1.70;;;16.40;99.90;;;;;;5083536;28;20430;-76
2022/09/15 09:02:39;;;;;;;9.18;2.08;;;;;;;;;;5082223;28;20750;-76
2022/09/15 09:05:28;;;;;;;7.93;1.50;;;;;;;;;;5079639;28;20418;-77
2022/09/15 09:07:54;;;;;;;5.15;1.50;;;;;;;;;;5071464;28;20426;-76
2022/09/15 09:10:43;;;;;;;6.65;1.60;;;;;;;;;;5078728;28;20558;-77
2022/09/15 09:13:35;;;;;;;3.20;1.00;;;17.60;99.90;;;;;;5085292;27;20731;-76
2022/09/15 09:16:03;;;;;;;4.05;1.30;;;;;;;;;;5086018;27;20606;-76
2022/09/15 09:18:49;;;;;;;4.88;1.33;;;;;;;;;;5103047;27;20411;-77
2022/09/15 09:21:35;;;;;;;5.80;1.25;;;17.80;99.90;;;;;;5076079;28;20931;-76
2022/09/15 09:24:05;;;;;;;6.45;1.40;;;;;;;;;;5097455;28;20430;-76
2022/09/15 09:26:34;;;;;;;5.13;1.50;;;17.50;99.90;;;;;;5096124;28;20967;-77
2022/09/15 09:29:02;;;;;;;4.55;1.60;;;;;;;;;;5087735;28;20411;-77
2022/09/15 09:31:28;;;;;;;7.55;1.58;;;;;;;;;;5103612;27;20422;-76
2022/09/15 09:34:17;;;;;;;4.47;1.50;;;17.60;99.90;;;;;;5124906;27;20419;-77
2022/09/15 09:36:43;;;;;;;5.55;1.38;;;;;;;;;;5089523;27;20419;-76
2022/09/15 09:39:16;;;;;;;6.57;1.48;;;;;;;;;;5090771;28;20460;-76
2022/09/15 09:41:43;;;;;;;4.38;1.10;;;;;;;;;;5076253;28;20443;-77
2022/09/15 09:44:14;;;;;;;5.57;1.30;;;17.90;99.90;;;;;;5096023;28;20411;-77
2022/09/15 09:46:40;;;;;;;11.75;4.88;;;18.00;99.90;;;;;;5104475;27;20416;-77
2022/09/15 09:49:21;;;;;;;8.80;4.38;;;17.50;99.90;;;;;;5097785;28;20407;-76
2022/09/15 09:51:54;;;;;;;4.90;2.70;;;;;;;;;;5069719;28;20416;-77
2022/09/15 09:54:23;;;;;;;9.00;4.97;;;16.40;99.90;;;;;;5091355;28;20424;-77
2022/09/15 09:56:50;;;;;;;6.30;1.50;;;;;;;;;;5087581;28;20436;-77
2022/09/15 09:59:35;;;;;;;5.05;1.50;;;;;;;;;;5078443;28;20396;-77
2022/09/15 10:02:11;;;;;;;6.07;1.30;;;;;;;;;;5098833;28;20503;-77
2022/09/15 10:04:37;;;;;;;4.80;1.38;;;;;;;;;;5097429;28;20420;-76
2022/09/15 10:07:04;;;;;;;5.63;1.20;;;;;;;;;;5092174;27;20429;-77
2022/09/15 10:09:30;;;;;;;7.28;1.55;;;;;;;;;;5091581;28;20491;-76
2022/09/15 10:11:58;;;;;;;6.67;1.33;;;;;;;;;;5093813;27;20424;-76
2022/09/15 10:14:28;;;;;;;6.77;1.23;;;;;;;;;;5097537;28;20915;-76
2022/09/15 10:17:03;;;;;;;7.10;1.30;;;15.90;99.90;;;;;;5099514;27;20478;-77
2022/09/15 10:19:32;;;;;;;6.53;1.73;;;16.00;99.90;;;;;;5080199;27;20427;-76
2022/09/15 10:22:00;;;;;;;4.47;1.50;;;16.20;99.90;;;;;;5098047;28;20492;-77
2022/09/15 10:24:26;;;;;;;4.80;1.13;;;;;;;;;;5079782;28;20535;-77
2022/09/15 10:27:05;;;;;;;6.45;1.45;;;;;;;;;;5081704;27;20491;-77
2022/09/15 10:29:37;;;;;;;4.95;1.27;;;;;;;;;;5101525;27;20439;-80
2022/09/15 10:32:17;;;;;;;4.38;1.20;;;;;;;;;;5077715;28;20448;-79
2022/09/15 10:34:43;;;;;;;6.83;2.90;;;17.60;99.90;;;;;;5097126;27;20418;-81
2022/09/15 10:37:25;;;;;;;8.03;4.00;;;17.40;99.90;;;;;;5095512;28;20488;-81
2022/09/15 10:39:53;;;;;;;6.65;1.67;;;;;;;;;;5080032;28;20481;-80
2022/09/15 10:42:22;;;;;;;6.32;2.35;;;;;;;;;;5096614;27;20878;-80
2022/09/15 10:44:57;;;;;;;6.93;1.60;;;;;;;;;;5081163;28;20426;-80
2022/09/15 10:47:41;;;;;;;5.25;1.48;;;;;;;;;;5106734;28;20432;-79
2022/09/15 10:50:13;;;;;;;8.50;3.53;;;;;;;;;;5098401;28;20994;-79
2022/09/15 10:52:58;;;;;;;7.78;2.90;;;;;;;;;;5063972;28;20465;-79
2022/09/15 10:55:35;;;;;;;9.40;3.85;;;;;;;;;;5096203;28;20789;-79
2022/09/15 10:58:07;;;;;;;9.25;3.33;;;16.00;99.90;;;;;;5091810;27;22136;-79
2022/09/15 11:00:39;;;;;;;8.60;3.47;;;;;;;;;;5095366;28;20427;-79
2022/09/15 11:03:18;;;;;;;9.23;3.50;;;;;;;;;;5099197;27;20406;-79
2022/09/15 11:06:03;;;;;;;7.72;1.88;;;;;;;;;;5093168;28;20420;-79
2022/09/15 11:08:48;;;;;;;8.20;4.53;;;;;;;;;;5088712;28;20428;-79
2022/09/15 11:11:29;;;;;;;5.60;1.45;;;;;;;;;;5083166;28;20468;-79
2022/09/15 11:13:55;;;;;;;3.88;1.08;;;;;;;;;;5076152;28;20418;-79
2022/09/15 11:16:21;;;;;;;5.32;1.50;;;;;;;;;;5101945;27;20427;-80
2022/09/15 11:18:51;;;;;;;6.13;1.45;;;;;;;;;;5089458;28;20410;-79
2022/09/15 11:21:26;;;;;;;5.90;1.30;;;;;;;;;;5083501;27;20418;-79
2022/09/15 11:24:16;;;;;;;7.75;3.75;;;;;;;;;;5085686;28;20506;-79
2022/09/15 11:27:05;;;;;;;5.13;1.90;;;17.40;99.90;;;;;;5085138;28;20472;-79
2022/09/15 11:29:53;;;;;;;5.82;1.75;;;17.60;99.90;;;;;;5083024;28;20417;-80
2022/09/15 11:32:35;;;;;;;5.47;1.30;;;17.40;99.90;;;;;;5083636;28;20432;-79
2022/09/15 11:35:04;;;;;;;6.20;1.35;;;;;;;;;;5107748;27;20416;-79
2022/09/15 11:37:35;;;;;;;7.03;1.27;;;;;;;;;;5121460;27;20417;-79
2022/09/15 11:40:07;;;;;;;4.53;1.15;;;;;;;;;;5098954;28;20400;-79
2022/09/15 11:42:39;;;;;;;4.15;0.98;;;;;;;;;;5071889;28;20897;-79
2022/09/15 11:45:13;;;;;;;6.68;1.30;;;;;;;;;;5110155;27;20414;-79
2022/09/15 11:47:42;;;;;;;2.50;1.00;;;;;;;;;;5072330;28;20425;-79
2022/09/15 11:50:18;;;;;;;3.87;1.03;;;;;;;;;;5103100;28;20492;-80
2022/09/15 11:52:54;;;;;;;3.00;0.80;;;;;;;;;;5087604;27;20444;-80
2022/09/15 11:55:35;;;;;;;2.90;1.20;;;;;;;;;;5108078;27;20514;-79
2022/09/15 11:58:12;;;;;;;2.50;0.80;;;;;;;;;;5083465;27;20458;-79
2022/09/15 12:00:42;;;;;;;3.10;0.90;;;;;;;;;;5089863;28;20415;-79
2022/09/15 12:03:21;;;;;;;1.63;0.80;;;;;;;;;;5094508;28;20401;-79
2022/09/15 12:05:51;;;;;;;2.95;0.90;;;;;;;;;;5070384;28;20429;-79
2022/09/15 12:08:21;;;;;;;7.68;4.18;;;;;;;;;;5095478;27;20414;-79
2022/09/15 12:10:51;;;;;;;5.15;2.70;;;;;;;;;;5090887;27;20417;-79
2022/09/15 12:13:24;;;;;;;6.57;3.92;;;;;;;;;;5106542;28;20416;-79
2022/09/15 12:15:51;;;;;;;11.23;6.70;;;19.00;99.90;;;;;;5107228;27;20834;-79
2022/09/15 12:18:41;;;;;;;6.10;3.10;;;18.80;99.90;;;;;;5105704;28;20439;-79
2022/09/15 12:21:23;;;;;;;9.30;5.23;;;;;;;;;;5093893;28;20494;-79
2022/09/15 12:23:57;;;;;;;3.97;1.13;;;19.20;99.90;;;;;;5090859;27;20414;-79
2022/09/15 12:26:25;;;;;;;3.70;1.00;;;;;;;;;;5100789;28;20512;-79
2022/09/15 12:29:20;;;;;;;3.20;0.90;;;19.40;99.90;;;;;;5090729;28;20839;-79
2022/09/15 12:31:46;;;;;;;8.68;4.43;;;19.40;99.90;;;;;;5026285;28;20422;-79
2022/09/15 12:34:24;;;;;;;5.00;1.92;;;;;;;;;;5093361;28;20413;-80
2022/09/15 12:36:55;;;;;;;13.35;6.63;;;;;;;;;;5106247;28;20454;-79
2022/09/15 12:39:36;;;;;;;2.97;1.63;;;;;;;;;;5071163;28;20443;-79
2022/09/15 12:42:21;;;;;;;4.68;1.30;;;;;;;;;;5107946;28;20416;-80
2022/09/15 12:45:05;;;;;;;11.30;4.07;;;17.40;99.90;;;;;;5070811;28;20414;-80
2022/09/15 12:47:31;;;;;;;4.65;1.63;;;;;;;;;;5089105;28;20565;-79
2022/09/15 12:50:01;;;;;;;7.07;1.40;;;;;;;;;;5099419;28;20444;-80
2022/09/15 12:52:28;;;;;;;16.17;9.30;;;;;;;;;;5091878;28;20514;-79
2022/09/15 12:54:59;;;;;;;15.80;9.05;;;;;;;;;;5099460;28;20497;-80
2022/09/15 12:57:29;;;;;;;10.25;3.80;;;;;;;;;;5083449;28;20512;-80
2022/09/15 13:00:15;;;;;;;13.80;7.55;;;;;;;;;;5107295;28;20465;-81
2022/09/15 13:02:46;;;;;;;10.00;5.35;;;;;;;;;;5081628;27;20465;-80
2022/09/15 13:05:13;;;;;;;7.18;2.97;;;;;;;;;;5103257;27;20426;-80
2022/09/15 13:07:53;;;;;;;4.95;1.35;;;;;;;;;;5099682;27;20497;-82
2022/09/15 13:10:27;;;;;;;6.13;1.60;;;;;;;;;;5100337;28;20439;-81
2022/09/15 13:12:57;;;;;;;5.88;1.50;;;;;;;;;;5096193;27;20749;-81
2022/09/15 13:15:24;;;;;;;6.05;1.33;;;;;;;;;;5102929;28;20416;-78
2022/09/15 13:17:51;;;;;;;10.40;1.83;;;;;;;;;;5103838;27;20761;-79
2022/09/15 13:20:23;;;;;;;4.68;1.65;;;;;;;;;;5067098;28;20409;-79
2022/09/15 13:22:51;;;;;;;5.30;1.13;;;;;;;;;;5098139;27;20424;-78
2022/09/15 13:25:28;;;;;;;4.18;1.33;;;17.30;99.90;;;;;;5105412;28;20420;-79
2022/09/15 13:27:57;;;;;;;4.85;1.33;;;17.30;99.90;;;;;;5090922;27;20416;-79
2022/09/15 13:30:47;;;;;;;3.78;1.20;;;;;;;;;;5095983;28;20552;-79
2022/09/15 13:33:19;;;;;;;7.72;1.30;;;;;;;;;;5112469;27;20795;-78
2022/09/15 13:35:48;;;;;;;6.10;3.08;;;;;;;;;;5084242;28;22065;-79
2022/09/15 13:38:17;;;;;;;6.20;1.40;;;;;;;;;;5076510;27;20931;-79
2022/09/15 13:40:47;;;;;;;3.65;1.10;;;;;;;;;;5102766;28;20892;-79
2022/09/15 13:43:31;;;;;;;4.40;1.02;;;17.30;99.90;;;;;;5087683;27;20921;-79
2022/09/15 13:46:05;;;;;;;3.47;1.00;;;;;;;;;;5101181;28;20787;-79
2022/09/15 13:48:31;;;;;;;4.00;1.07;;;;;;;;;;5091177;28;20423;-79
2022/09/15 13:50:59;;;;;;;4.75;1.85;;;;;;;;;;5094047;28;20411;-79
2022/09/15 13:53:45;;;;;;;5.15;1.05;;;16.60;99.90;;;;;;5093005;27;20418;-80
2022/09/15 13:56:32;;;;;;;3.45;0.90;;;;;;;;;;5075741;28;20745;-79
2022/09/15 13:59:01;;;;;;;4.20;1.10;;;;;;;;;;5072067;28;20416;-79
2022/09/15 14:01:28;;;;;;;4.70;1.20;;;;;;;;;;5076476;27;20414;-79
2022/09/15 14:04:09;;;;;;;4.55;1.10;;;;;;;;;;5103950;27;20417;-80
2022/09/15 14:06:37;;;;;;;3.47;1.00;;;;;;;;;;5092421;28;20734;-79
2022/09/15 14:09:39;;;;;;;3.53;1.00;;;;;;;;;;5104014;27;20410;-79
2022/09/15 14:12:08;;;;;;;3.10;1.08;;;;;;;;;;4981857;28;20426;-79
2022/09/15 14:14:39;;;;;;;3.40;1.05;;;;;;;;;;5073756;27;20768;-78
2022/09/15 14:17:05;;;;;;;4.35;1.08;;;;;;;;;;5088506;27;20932;-79
2022/09/15 14:19:36;;;;;;;4.43;1.05;;;;;;;;;;5076019;28;20425;-80
2022/09/15 14:22:17;;;;;;;3.30;1.10;;;;;;;;;;5101595;27;20425;-80
2022/09/15 14:24:44;;;;;;;4.85;1.20;;;;;;;;;;5070267;27;20491;-80
2022/09/15 14:27:11;;;;;;;5.97;1.23;;;;;;;;;;5078539;28;20476;-80
2022/09/15 14:29:42;;;;;;;4.30;1.30;;;;;;;;;;5085777;28;20420;-79
2022/09/15 14:32:12;;;;;;;4.77;1.20;;;;;;;;;;5084592;28;20492;-80
2022/09/15 14:34:40;;;;;;;5.68;1.27;;;;;;;;;;5094612;27;20464;-79
2022/09/15 14:37:12;;;;;;;3.90;1.30;;;;;;;;;;5089823;28;20416;-79